createdAt,value
2022-12-31T00:02:31.902Z,100.00
2022-12-31T00:05:21.352Z,100.00
2022-12-31T00:08:08.804Z,100.00
2022-12-31T00:10:56.561Z,100.00
2022-12-31T00:13:44.400Z,100.00
2022-12-31T00:16:36.631Z,99.76
2022-12-31T00:19:25.031Z,100.00
2022-12-31T00:22:14.106Z,100.00
2022-12-31T00:25:01.675Z,100.00
2022-12-31T00:27:48.947Z,100.00
2022-12-31T00:30:36.451Z,100.00
2022-12-31T00:33:24.039Z,100.00
2022-12-31T00:36:14.374Z,100.00
2022-12-31T00:39:04.636Z,100.00
2022-12-31T00:41:51.908Z,100.00
2022-12-31T00:44:39.264Z,100.00
2022-12-31T00:47:26.566Z,100.00
2022-12-31T00:50:14.373Z,100.00
2022-12-31T00:53:01.702Z,100.00
2022-12-31T00:55:53.459Z,100.00
2022-12-31T00:58:41.439Z,100.00
2022-12-31T01:01:31.123Z,100.00
2022-12-31T01:04:21.172Z,100.00
2022-12-31T01:07:08.365Z,100.00
2022-12-31T01:09:55.658Z,100.00
2022-12-31T01:12:45.025Z,100.00
2022-12-31T01:15:35.777Z,100.00
2022-12-31T01:18:23.725Z,100.00
2022-12-31T01:21:12.616Z,100.00
2022-12-31T01:24:00.697Z,100.00
2022-12-31T01:26:48.963Z,100.00
2022-12-31T01:29:38.473Z,100.00
2022-12-31T01:32:26.247Z,100.00
2022-12-31T01:35:13.716Z,100.00
2022-12-31T01:38:00.971Z,100.00
2022-12-31T01:40:48.387Z,100.00
2022-12-31T01:43:51.304Z,100.00
2022-12-31T01:46:43.819Z,100.00
2022-12-31T01:49:37.877Z,100.00
2022-12-31T01:52:30.357Z,100.00
2022-12-31T01:55:22.703Z,100.00
2022-12-31T01:58:13.201Z,100.00
2022-12-31T02:01:01.008Z,100.00
2022-12-31T02:03:49.778Z,100.00
2022-12-31T02:06:41.465Z,100.00
2022-12-31T02:09:29.220Z,100.00
2022-12-31T02:12:17.006Z,100.00
2022-12-31T02:15:05.054Z,100.00
2022-12-31T02:18:02.567Z,100.00
2022-12-31T02:21:15.817Z,100.00
2022-12-31T02:24:32.777Z,100.00
2022-12-31T02:27:35.100Z,100.00
2022-12-31T02:30:26.284Z,100.00
2022-12-31T02:33:20.918Z,100.00
2022-12-31T02:36:13.546Z,100.00
2022-12-31T02:39:02.438Z,100.00
2022-12-31T02:41:53.938Z,100.00
2022-12-31T02:44:43.314Z,100.00
2022-12-31T02:47:48.324Z,100.00
2022-12-31T02:50:55.704Z,100.00
2022-12-31T02:54:13.166Z,100.00
2022-12-31T02:57:11.928Z,100.00
2022-12-31T03:00:19.928Z,100.00
2022-12-31T03:03:10.492Z,100.00
2022-12-31T03:05:59.667Z,100.00
2022-12-31T03:09:00.654Z,100.00
2022-12-31T03:12:05.348Z,100.00
2022-12-31T03:14:52.935Z,100.00
2022-12-31T03:17:40.705Z,100.00
2022-12-31T03:20:50.341Z,100.00
2022-12-31T03:23:41.223Z,100.00
2022-12-31T03:26:27.393Z,100.00
2022-12-31T03:29:14.967Z,100.00
2022-12-31T03:32:02.224Z,100.00
2022-12-31T03:34:56.061Z,100.00
2022-12-31T03:37:45.126Z,100.00
2022-12-31T03:40:34.543Z,100.00
2022-12-31T03:43:22.224Z,100.00
2022-12-31T03:46:09.789Z,100.00
2022-12-31T03:48:57.363Z,100.00
2022-12-31T03:51:44.649Z,100.00
2022-12-31T03:54:33.337Z,100.00
2022-12-31T03:57:21.032Z,100.00
2022-12-31T04:00:11.031Z,100.00
2022-12-31T04:02:58.856Z,100.00
2022-12-31T04:05:46.437Z,100.00
2022-12-31T04:08:33.608Z,100.00
2022-12-31T04:11:22.592Z,100.00
2022-12-31T04:14:10.301Z,100.00
2022-12-31T04:16:57.824Z,100.00
2022-12-31T04:19:45.097Z,100.00
2022-12-31T04:22:32.418Z,100.00
2022-12-31T04:25:19.841Z,100.00
2022-12-31T04:28:09.806Z,100.00
2022-12-31T04:30:57.175Z,100.00
2022-12-31T04:33:44.629Z,100.00
2022-12-31T04:36:31.995Z,100.00
2022-12-31T04:39:19.566Z,100.00
2022-12-31T04:42:07.391Z,100.00
2022-12-31T04:44:56.017Z,100.00
2022-12-31T04:47:43.266Z,100.00
2022-12-31T04:50:30.666Z,100.00
2022-12-31T04:53:18.112Z,100.00
2022-12-31T04:56:06.253Z,100.00
2022-12-31T04:58:53.681Z,100.00
2022-12-31T05:01:42.607Z,100.00
2022-12-31T05:04:30.068Z,100.00
2022-12-31T05:07:17.662Z,100.00
2022-12-31T05:10:05.712Z,100.00
2022-12-31T05:12:52.984Z,100.00
2022-12-31T05:15:40.942Z,100.00
2022-12-31T05:18:30.553Z,100.00
2022-12-31T05:21:22.252Z,100.00
2022-12-31T05:24:10.090Z,100.00
2022-12-31T05:26:58.181Z,100.00
2022-12-31T05:29:45.384Z,100.00
2022-12-31T05:32:32.905Z,100.00
2022-12-31T05:35:21.950Z,100.00
2022-12-31T05:38:09.708Z,100.00
2022-12-31T05:41:04.968Z,100.00
2022-12-31T05:43:52.575Z,100.00
2022-12-31T05:46:40.253Z,100.00
2022-12-31T05:49:27.986Z,100.00
2022-12-31T05:52:16.926Z,100.00
2022-12-31T05:55:04.580Z,100.00
2022-12-31T05:57:52.147Z,100.00
2022-12-31T06:00:39.686Z,100.00
2022-12-31T06:03:27.067Z,100.00
2022-12-31T06:06:14.671Z,100.00
2022-12-31T06:09:03.840Z,100.00
2022-12-31T06:11:51.559Z,100.00
2022-12-31T06:14:45.280Z,100.00
2022-12-31T06:17:33.336Z,100.00
2022-12-31T06:20:20.849Z,100.00
2022-12-31T06:23:08.260Z,100.00
2022-12-31T06:25:57.221Z,100.00
2022-12-31T06:28:44.658Z,100.00
2022-12-31T06:31:32.570Z,100.00
2022-12-31T06:34:20.417Z,100.00
2022-12-31T06:37:08.076Z,100.00
2022-12-31T06:39:55.549Z,100.00
2022-12-31T06:42:44.425Z,100.00
2022-12-31T06:45:31.896Z,100.00
2022-12-31T06:48:19.410Z,100.00
2022-12-31T06:51:11.869Z,100.00
2022-12-31T06:54:02.492Z,100.00
2022-12-31T06:56:50.325Z,100.00
2022-12-31T06:59:39.815Z,100.00
2022-12-31T07:02:52.887Z,99.54
2022-12-31T07:05:48.297Z,98.35
2022-12-31T07:08:47.711Z,97.26
2022-12-31T07:11:44.125Z,96.46
2022-12-31T07:14:38.825Z,95.97
2022-12-31T07:17:35.212Z,96.65
2022-12-31T07:20:26.144Z,95.47
2022-12-31T07:23:14.336Z,95.09
2022-12-31T07:26:08.261Z,93.37
2022-12-31T07:29:05.906Z,93.36
2022-12-31T07:32:03.645Z,93.13
2022-12-31T07:35:00.328Z,92.70
2022-12-31T07:37:59.912Z,92.01
2022-12-31T07:40:59.813Z,92.23
2022-12-31T07:43:58.047Z,92.36
2022-12-31T07:46:54.659Z,92.25
2022-12-31T07:49:45.826Z,91.67
2022-12-31T07:52:35.346Z,92.18
2022-12-31T07:55:22.667Z,93.09
2022-12-31T07:58:20.672Z,94.24
2022-12-31T08:01:11.419Z,94.51
2022-12-31T08:04:07.728Z,93.95
2022-12-31T08:07:04.075Z,94.69
2022-12-31T08:10:04.269Z,95.61
2022-12-31T08:12:54.119Z,95.08
2022-12-31T08:15:42.705Z,95.97
2022-12-31T08:18:30.726Z,94.41
2022-12-31T08:21:34.791Z,92.46
2022-12-31T08:24:31.350Z,90.86
2022-12-31T08:27:30.428Z,89.28
2022-12-31T08:30:21.346Z,86.88
2022-12-31T08:33:14.082Z,84.39
2022-12-31T08:36:13.287Z,84.68
2022-12-31T08:39:08.285Z,85.74
2022-12-31T08:41:58.946Z,84.79
2022-12-31T08:44:57.119Z,83.24
2022-12-31T08:47:56.436Z,83.03
2022-12-31T08:50:47.675Z,82.88
2022-12-31T08:53:36.346Z,83.86
2022-12-31T08:56:30.031Z,83.63
2022-12-31T08:59:29.996Z,82.36
2022-12-31T09:02:48.218Z,80.24
2022-12-31T09:05:47.418Z,80.15
2022-12-31T09:08:43.143Z,80.71
2022-12-31T09:11:35.616Z,80.47
2022-12-31T09:14:43.017Z,79.34
2022-12-31T09:17:46.937Z,80.16
2022-12-31T09:20:44.447Z,79.88
2022-12-31T09:23:33.185Z,79.78
2022-12-31T09:26:41.598Z,80.78
2022-12-31T09:29:42.943Z,79.13
2022-12-31T09:32:40.585Z,79.40
2022-12-31T09:35:36.945Z,79.55
2022-12-31T09:38:31.581Z,78.59
2022-12-31T09:41:36.686Z,78.96
2022-12-31T09:45:00.480Z,78.17
2022-12-31T09:48:26.557Z,79.00
2022-12-31T09:51:31.437Z,79.60
2022-12-31T09:54:41.757Z,77.90
2022-12-31T09:57:41.968Z,77.76
2022-12-31T10:00:35.840Z,77.60
2022-12-31T10:03:45.185Z,77.18
2022-12-31T10:06:43.848Z,77.34
2022-12-31T10:09:45.274Z,76.75
2022-12-31T10:13:00.202Z,77.72
2022-12-31T10:16:10.708Z,76.85
2022-12-31T10:19:33.311Z,77.05
2022-12-31T10:22:45.643Z,77.92
2022-12-31T10:25:58.034Z,77.48
2022-12-31T10:28:55.462Z,75.97
2022-12-31T10:31:55.847Z,77.41
2022-12-31T10:34:54.227Z,75.96
2022-12-31T10:37:50.206Z,74.44
2022-12-31T10:41:05.262Z,74.94
2022-12-31T10:44:36.051Z,75.34
2022-12-31T10:47:58.671Z,75.51
2022-12-31T10:51:25.766Z,78.71
2022-12-31T10:54:41.943Z,80.11
2022-12-31T10:58:08.116Z,81.80
2022-12-31T11:01:02.455Z,81.49
2022-12-31T11:04:21.023Z,81.39
2022-12-31T11:07:43.823Z,80.58
2022-12-31T11:11:03.624Z,80.24
2022-12-31T11:14:17.413Z,80.47
2022-12-31T11:17:22.381Z,80.27
2022-12-31T11:20:28.640Z,80.37
2022-12-31T11:23:28.416Z,80.33
2022-12-31T11:26:30.859Z,79.32
2022-12-31T11:29:33.986Z,81.85
2022-12-31T11:32:34.438Z,82.29
2022-12-31T11:35:33.759Z,81.80
2022-12-31T11:38:26.237Z,81.82
2022-12-31T11:41:18.174Z,81.15
2022-12-31T11:44:20.244Z,80.22
2022-12-31T11:47:24.298Z,78.94
2022-12-31T11:50:29.367Z,78.00
2022-12-31T11:53:36.229Z,79.02
2022-12-31T11:56:29.655Z,77.75
2022-12-31T11:59:19.832Z,78.14
2022-12-31T12:02:26.920Z,76.70
2022-12-31T12:05:20.395Z,75.67
2022-12-31T12:08:08.093Z,75.89
2022-12-31T12:11:08.020Z,76.00
2022-12-31T12:13:55.847Z,75.07
2022-12-31T12:16:45.165Z,74.87
2022-12-31T12:19:35.114Z,73.99
2022-12-31T12:22:25.032Z,72.85
2022-12-31T12:25:20.732Z,72.70
2022-12-31T12:28:24.736Z,73.28
2022-12-31T12:31:21.202Z,73.98
2022-12-31T12:34:24.848Z,74.28
2022-12-31T12:37:28.312Z,73.27
2022-12-31T12:40:33.116Z,73.62
2022-12-31T12:43:26.708Z,74.22
2022-12-31T12:46:22.085Z,74.89
2022-12-31T12:49:24.309Z,73.89
2022-12-31T12:52:34.145Z,73.69
2022-12-31T12:55:27.567Z,73.57
2022-12-31T12:58:27.725Z,73.75
2022-12-31T13:01:25.887Z,73.09
2022-12-31T13:04:45.047Z,73.81
2022-12-31T13:07:48.278Z,73.72
2022-12-31T13:10:50.941Z,73.68
2022-12-31T13:13:45.145Z,73.63
2022-12-31T13:16:40.378Z,70.92
2022-12-31T13:19:36.316Z,71.46
2022-12-31T13:22:34.171Z,72.41
2022-12-31T13:25:31.011Z,72.54
2022-12-31T13:28:20.807Z,71.86
2022-12-31T13:31:13.802Z,73.12
2022-12-31T13:34:07.299Z,71.52
2022-12-31T13:36:58.854Z,71.72
2022-12-31T13:39:59.507Z,72.48
2022-12-31T13:42:53.852Z,72.19
2022-12-31T13:45:45.661Z,71.59
2022-12-31T13:48:40.313Z,72.13
2022-12-31T13:51:36.755Z,71.80
2022-12-31T13:54:36.271Z,73.25
2022-12-31T13:57:39.210Z,75.15
2022-12-31T14:00:30.037Z,77.14
2022-12-31T14:03:23.712Z,76.80
2022-12-31T14:06:22.162Z,80.74
2022-12-31T14:09:14.891Z,80.15
2022-12-31T14:12:22.461Z,82.09
2022-12-31T14:15:19.674Z,82.44
2022-12-31T14:18:17.175Z,81.88
2022-12-31T14:21:13.433Z,81.72
2022-12-31T14:24:08.212Z,82.04
2022-12-31T14:26:59.888Z,83.33
2022-12-31T14:29:51.017Z,83.13
2022-12-31T14:33:15.519Z,83.70
2022-12-31T14:36:14.315Z,84.13
2022-12-31T14:39:19.848Z,83.74
2022-12-31T14:42:20.085Z,83.97
2022-12-31T14:45:23.512Z,83.54
2022-12-31T14:48:26.045Z,83.71
2022-12-31T14:51:14.685Z,83.42
2022-12-31T14:54:02.370Z,82.92
2022-12-31T14:56:51.484Z,83.11
2022-12-31T14:59:40.815Z,83.00
2022-12-31T15:02:31.320Z,82.58
2022-12-31T15:05:23.926Z,83.83
2022-12-31T15:08:48.579Z,84.80
2022-12-31T15:11:49.966Z,85.67
2022-12-31T15:15:09.494Z,86.33
2022-12-31T15:18:11.606Z,88.07
2022-12-31T15:21:33.744Z,88.07
2022-12-31T15:24:22.928Z,86.29
2022-12-31T15:27:32.364Z,86.79
2022-12-31T15:30:38.143Z,86.63
2022-12-31T15:33:32.698Z,85.31
2022-12-31T15:36:23.836Z,84.17
2022-12-31T15:39:41.376Z,84.17
2022-12-31T15:42:40.652Z,84.08
2022-12-31T15:45:34.327Z,83.17
2022-12-31T15:48:27.671Z,82.91
2022-12-31T15:51:24.101Z,82.35
2022-12-31T15:54:26.034Z,82.91
2022-12-31T15:57:19.382Z,81.40
2022-12-31T16:00:10.066Z,81.77
2022-12-31T16:02:57.887Z,80.56
2022-12-31T16:05:45.342Z,80.29
2022-12-31T16:08:36.664Z,80.45
2022-12-31T16:11:25.398Z,79.43
2022-12-31T16:14:21.598Z,79.92
2022-12-31T16:17:26.004Z,77.84
2022-12-31T16:20:25.620Z,77.66
2022-12-31T16:23:24.760Z,78.31
2022-12-31T16:26:13.844Z,78.99
2022-12-31T16:29:04.448Z,78.55
2022-12-31T16:31:54.615Z,79.67
2022-12-31T16:34:42.447Z,79.50
2022-12-31T16:37:30.319Z,79.58
2022-12-31T16:40:24.944Z,79.83
2022-12-31T16:43:30.057Z,80.45
2022-12-31T16:46:23.074Z,80.27
2022-12-31T16:49:19.926Z,81.21
2022-12-31T16:52:18.746Z,81.86
2022-12-31T16:55:09.727Z,81.77
2022-12-31T16:58:02.111Z,81.89
2022-12-31T17:00:52.796Z,82.56
2022-12-31T17:03:44.119Z,82.22
2022-12-31T17:06:33.955Z,82.26
2022-12-31T17:09:23.514Z,81.93
2022-12-31T17:12:17.781Z,81.81
2022-12-31T17:15:07.352Z,82.75
2022-12-31T17:17:58.735Z,81.69
2022-12-31T17:20:46.518Z,81.59
2022-12-31T17:23:37.109Z,82.43
2022-12-31T17:26:28.377Z,81.17
2022-12-31T17:29:26.041Z,80.66
2022-12-31T17:32:30.431Z,80.55
2022-12-31T17:35:35.574Z,80.18
2022-12-31T17:38:41.244Z,78.60
2022-12-31T17:41:29.479Z,78.33
2022-12-31T17:44:21.492Z,77.99
2022-12-31T17:47:11.865Z,76.75
2022-12-31T17:49:59.338Z,76.86
2022-12-31T17:52:49.594Z,76.33
2022-12-31T17:55:37.303Z,75.75
2022-12-31T17:58:30.029Z,75.53
2022-12-31T18:01:19.998Z,74.38
2022-12-31T18:04:12.630Z,72.04
2022-12-31T18:07:00.232Z,71.82
2022-12-31T18:09:49.127Z,71.94
2022-12-31T18:12:36.701Z,71.46
2022-12-31T18:15:25.815Z,71.38
2022-12-31T18:18:24.785Z,71.59
2022-12-31T18:21:19.453Z,70.29
2022-12-31T18:24:08.009Z,70.41
2022-12-31T18:26:56.789Z,70.56
2022-12-31T18:29:44.694Z,69.77
2022-12-31T18:32:33.273Z,70.64
2022-12-31T18:38:31.033Z,69.81
2022-12-31T18:41:21.124Z,68.73
2022-12-31T18:44:12.764Z,69.81
2022-12-31T18:47:00.414Z,69.46
2022-12-31T18:49:48.872Z,70.09
2022-12-31T18:52:36.471Z,69.13
2022-12-31T18:55:28.174Z,69.42
2022-12-31T18:58:15.854Z,69.45
2022-12-31T19:01:05.042Z,69.16
2022-12-31T19:03:52.893Z,68.51
2022-12-31T19:06:40.662Z,67.20
2022-12-31T19:09:45.136Z,68.36
2022-12-31T19:12:34.042Z,67.80
2022-12-31T19:15:27.081Z,67.86
2022-12-31T19:18:15.763Z,66.40
2022-12-31T19:21:03.714Z,67.08
2022-12-31T19:23:53.294Z,66.48
2022-12-31T19:26:43.530Z,67.29
2022-12-31T19:29:31.071Z,68.01
2022-12-31T19:32:18.495Z,67.17
2022-12-31T19:35:07.632Z,66.23
2022-12-31T19:37:56.535Z,65.92
2022-12-31T19:40:44.223Z,65.67
2022-12-31T19:43:31.980Z,65.35
2022-12-31T19:46:20.353Z,64.90
2022-12-31T19:49:08.086Z,64.53
2022-12-31T19:51:56.865Z,64.50
2022-12-31T19:54:44.172Z,64.75
2022-12-31T19:57:31.568Z,64.71
2022-12-31T20:00:20.506Z,64.31
2022-12-31T20:03:07.997Z,63.21
2022-12-31T20:06:04.014Z,63.29
2022-12-31T20:08:53.387Z,63.85
2022-12-31T20:11:40.783Z,63.29
2022-12-31T20:14:27.981Z,62.35
2022-12-31T20:17:15.495Z,61.96
2022-12-31T20:20:03.009Z,62.36
2022-12-31T20:22:50.770Z,61.24
2022-12-31T20:25:39.732Z,61.07
2022-12-31T20:28:27.172Z,61.28
2022-12-31T20:31:16.372Z,60.99
2022-12-31T20:34:03.921Z,61.13
2022-12-31T20:36:51.100Z,60.92
2022-12-31T20:39:39.103Z,61.46
2022-12-31T20:42:28.076Z,61.31
2022-12-31T20:45:15.553Z,60.64
2022-12-31T20:48:02.834Z,60.57
2022-12-31T20:50:55.966Z,61.30
2022-12-31T20:53:48.518Z,60.59
2022-12-31T20:56:38.387Z,61.50
2022-12-31T20:59:27.266Z,61.10
2022-12-31T21:02:29.497Z,60.45
2022-12-31T21:05:23.512Z,60.22
2022-12-31T21:08:11.282Z,60.05
2022-12-31T21:10:58.596Z,58.77
2022-12-31T21:13:45.133Z,58.12
2022-12-31T21:16:34.231Z,58.83
2022-12-31T21:19:21.643Z,58.15
2022-12-31T21:22:08.872Z,58.01
2022-12-31T21:24:56.298Z,57.77
2022-12-31T21:27:44.029Z,58.09
2022-12-31T21:30:32.174Z,56.93
2022-12-31T21:33:21.144Z,57.10
2022-12-31T21:36:08.860Z,55.98
2022-12-31T21:38:56.192Z,56.69
2022-12-31T21:41:52.418Z,57.43
2022-12-31T21:44:39.803Z,56.55
2022-12-31T21:47:47.581Z,57.37
2022-12-31T21:50:37.001Z,56.61
2022-12-31T21:53:32.308Z,56.79
2022-12-31T21:56:24.245Z,56.19
2022-12-31T21:59:29.384Z,55.28
2022-12-31T22:02:34.243Z,55.48
2022-12-31T22:05:25.302Z,56.13
2022-12-31T22:08:14.200Z,57.09
2022-12-31T22:11:01.568Z,56.25
2022-12-31T22:13:49.213Z,56.48
2022-12-31T22:16:36.604Z,55.98
2022-12-31T22:19:23.693Z,55.89
2022-12-31T22:22:11.247Z,55.88
2022-12-31T22:25:00.562Z,56.54
2022-12-31T22:28:04.413Z,56.06
2022-12-31T22:30:56.077Z,56.69
2022-12-31T22:33:44.182Z,56.14
2022-12-31T22:36:31.745Z,55.96
2022-12-31T22:39:43.809Z,55.53
2022-12-31T22:42:28.505Z,55.81
2022-12-31T22:45:15.724Z,57.18
2022-12-31T22:48:02.976Z,55.74
2022-12-31T22:50:56.484Z,57.27
2022-12-31T22:53:44.407Z,56.73
2022-12-31T22:56:31.999Z,57.06
2022-12-31T22:59:20.789Z,57.19
2022-12-31T23:02:08.063Z,55.87
2022-12-31T23:05:15.278Z,56.50
2022-12-31T23:08:12.889Z,57.02
2022-12-31T23:11:06.140Z,55.87
2022-12-31T23:14:11.313Z,56.30
2022-12-31T23:17:30.923Z,55.91
2022-12-31T23:20:39.987Z,56.07
2022-12-31T23:23:27.537Z,56.54
2022-12-31T23:26:14.824Z,56.57
2022-12-31T23:29:02.979Z,56.72
2022-12-31T23:31:50.558Z,56.92
2022-12-31T23:34:39.752Z,56.58
2022-12-31T23:37:27.432Z,56.69
2022-12-31T23:40:20.867Z,57.28
2022-12-31T23:43:09.923Z,56.47
2022-12-31T23:45:57.332Z,56.52
2022-12-31T23:48:45.182Z,56.66
2022-12-31T23:51:36.153Z,56.60
2022-12-31T23:54:23.812Z,56.70
2022-12-31T23:57:11.247Z,56.46
2022-12-31T23:59:58.836Z,57.07
